sensor_id;sensor_type;location;lat;lon;timestamp;pressure;altitude;pressure_sealevel;temperature;humidity
23170;BME280;11753;43.144;24.714;2023-02-03T00:00:59;99837.78;;;4.76;68.83
23170;BME280;11753;43.144;24.714;2023-02-03T00:02:01;99840.63;;;4.73;69.00
23170;BME280;11753;43.144;24.714;2023-02-03T00:03:02;99840.84;;;4.70;67.69
23170;BME280;11753;43.144;24.714;2023-02-03T00:04:03;99849.16;;;4.75;67.46
23170;BME280;11753;43.144;24.714;2023-02-03T00:05:07;99837.00;;;4.63;67.72
23170;BME280;11753;43.144;24.714;2023-02-03T00:06:09;99841.19;;;4.65;68.10
23170;BME280;11753;43.144;24.714;2023-02-03T00:07:12;99846.06;;;4.70;67.94
23170;BME280;11753;43.144;24.714;2023-02-03T00:08:15;99850.66;;;4.66;68.57
23170;BME280;11753;43.144;24.714;2023-02-03T00:09:17;99848.94;;;4.54;68.88
23170;BME280;11753;43.144;24.714;2023-02-03T00:10:19;99856.09;;;4.63;68.75
23170;BME280;11753;43.144;24.714;2023-02-03T00:11:22;99858.81;;;4.62;68.81
23170;BME280;11753;43.144;24.714;2023-02-03T00:12:23;99851.41;;;4.56;69.08
23170;BME280;11753;43.144;24.714;2023-02-03T00:13:24;99858.59;;;4.65;69.47
23170;BME280;11753;43.144;24.714;2023-02-03T00:14:26;99861.63;;;4.72;68.34
23170;BME280;11753;43.144;24.714;2023-02-03T00:15:27;99862.66;;;4.69;68.09
23170;BME280;11753;43.144;24.714;2023-02-03T00:16:28;99856.31;;;4.60;68.45
23170;BME280;11753;43.144;24.714;2023-02-03T00:17:29;99857.66;;;4.66;68.18
23170;BME280;11753;43.144;24.714;2023-02-03T00:18:29;99860.28;;;4.66;68.29
23170;BME280;11753;43.144;24.714;2023-02-03T00:19:31;99865.06;;;4.72;68.23
23170;BME280;11753;43.144;24.714;2023-02-03T00:20:32;99857.94;;;4.74;67.38
23170;BME280;11753;43.144;24.714;2023-02-03T00:21:33;99858.78;;;4.75;67.41
23170;BME280;11753;43.144;24.714;2023-02-03T00:22:34;99863.34;;;4.71;68.42
23170;BME280;11753;43.144;24.714;2023-02-03T00:23:34;99875.38;;;4.74;68.43
23170;BME280;11753;43.144;24.714;2023-02-03T00:24:36;99870.69;;;4.66;67.74
23170;BME280;11753;43.144;24.714;2023-02-03T00:25:37;99868.81;;;4.68;68.10
23170;BME280;11753;43.144;24.714;2023-02-03T00:26:42;99876.09;;;4.76;67.80
23170;BME280;11753;43.144;24.714;2023-02-03T00:27:43;99869.31;;;4.73;67.93
23170;BME280;11753;43.144;24.714;2023-02-03T00:28:45;99879.63;;;4.75;67.81
23170;BME280;11753;43.144;24.714;2023-02-03T00:29:47;99870.28;;;4.72;68.38
23170;BME280;11753;43.144;24.714;2023-02-03T00:30:48;99882.41;;;4.84;66.40
23170;BME280;11753;43.144;24.714;2023-02-03T00:31:49;99873.16;;;4.80;65.85
23170;BME280;11753;43.144;24.714;2023-02-03T00:32:50;99874.53;;;4.73;66.23
23170;BME280;11753;43.144;24.714;2023-02-03T00:33:55;99872.13;;;4.70;66.93
23170;BME280;11753;43.144;24.714;2023-02-03T00:34:56;99882.16;;;4.63;66.67
23170;BME280;11753;43.144;24.714;2023-02-03T00:35:58;99894.06;;;4.67;66.74
23170;BME280;11753;43.144;24.714;2023-02-03T00:36:58;99882.38;;;4.73;66.67
23170;BME280;11753;43.144;24.714;2023-02-03T00:37:59;99882.38;;;4.73;66.87
23170;BME280;11753;43.144;24.714;2023-02-03T00:39:00;99887.34;;;4.76;66.88
23170;BME280;11753;43.144;24.714;2023-02-03T00:40:02;99888.81;;;4.80;67.18
23170;BME280;11753;43.144;24.714;2023-02-03T00:41:03;99896.91;;;4.88;67.45
23170;BME280;11753;43.144;24.714;2023-02-03T00:42:04;99891.69;;;4.88;67.57
23170;BME280;11753;43.144;24.714;2023-02-03T00:43:05;99890.75;;;4.89;67.71
23170;BME280;11753;43.144;24.714;2023-02-03T00:44:06;99888.13;;;4.89;67.56
23170;BME280;11753;43.144;24.714;2023-02-03T00:45:08;99884.38;;;4.93;67.94
23170;BME280;11753;43.144;24.714;2023-02-03T00:46:09;99885.22;;;4.94;68.10
23170;BME280;11753;43.144;24.714;2023-02-03T00:47:10;99891.47;;;4.91;67.47
23170;BME280;11753;43.144;24.714;2023-02-03T00:48:11;99897.41;;;4.93;67.34
23170;BME280;11753;43.144;24.714;2023-02-03T00:49:12;99891.03;;;4.97;67.21
23170;BME280;11753;43.144;24.714;2023-02-03T00:50:13;99883.63;;;4.91;67.38
23170;BME280;11753;43.144;24.714;2023-02-03T00:51:14;99882.91;;;4.89;67.37
23170;BME280;11753;43.144;24.714;2023-02-03T00:52:15;99895.72;;;4.92;67.82
23170;BME280;11753;43.144;24.714;2023-02-03T00:53:17;99894.56;;;4.96;67.75
23170;BME280;11753;43.144;24.714;2023-02-03T00:54:18;99891.84;;;4.98;67.50
23170;BME280;11753;43.144;24.714;2023-02-03T00:55:18;99893.50;;;4.99;66.65
23170;BME280;11753;43.144;24.714;2023-02-03T00:56:19;99897.63;;;4.90;66.15
23170;BME280;11753;43.144;24.714;2023-02-03T00:57:20;99892.75;;;4.86;66.43
23170;BME280;11753;43.144;24.714;2023-02-03T00:58:21;99892.75;;;4.86;66.74
23170;BME280;11753;43.144;24.714;2023-02-03T00:59:22;99881.56;;;4.84;65.96
23170;BME280;11753;43.144;24.714;2023-02-03T01:00:23;99889.59;;;4.93;66.04
23170;BME280;11753;43.144;24.714;2023-02-03T01:01:23;99881.19;;;4.77;66.86
23170;BME280;11753;43.144;24.714;2023-02-03T01:02:24;99898.19;;;4.83;66.77
23170;BME280;11753;43.144;24.714;2023-02-03T01:03:25;99883.78;;;4.77;67.70
23170;BME280;11753;43.144;24.714;2023-02-03T01:04:25;99889.00;;;4.77;67.73
23170;BME280;11753;43.144;24.714;2023-02-03T01:05:26;99894.97;;;4.79;68.08
23170;BME280;11753;43.144;24.714;2023-02-03T01:06:27;99895.44;;;4.84;68.33
23170;BME280;11753;43.144;24.714;2023-02-03T01:07:30;99902.13;;;4.88;68.11
23170;BME280;11753;43.144;24.714;2023-02-03T01:08:31;99904.50;;;4.91;67.90
23170;BME280;11753;43.144;24.714;2023-02-03T01:09:33;99906.91;;;4.94;68.04
23170;BME280;11753;43.144;24.714;2023-02-03T01:10:37;99903.56;;;4.92;67.86
23170;BME280;11753;43.144;24.714;2023-02-03T01:11:38;99903.56;;;4.92;67.91
23170;BME280;11753;43.144;24.714;2023-02-03T01:12:38;99899.09;;;4.94;68.24
23170;BME280;11753;43.144;24.714;2023-02-03T01:13:39;99899.91;;;4.95;68.35
23170;BME280;11753;43.144;24.714;2023-02-03T01:14:39;99894.56;;;4.96;67.68
23170;BME280;11753;43.144;24.714;2023-02-03T01:15:47;99891.91;;;4.85;67.24
23170;BME280;11753;43.144;24.714;2023-02-03T01:16:47;99896.91;;;4.88;67.12
23170;BME280;11753;43.144;24.714;2023-02-03T01:17:48;99882.69;;;4.92;67.37
23170;BME280;11753;43.144;24.714;2023-02-03T01:18:49;99885.66;;;4.88;68.16
23170;BME280;11753;43.144;24.714;2023-02-03T01:19:50;99888.53;;;4.96;67.51
23170;BME280;11753;43.144;24.714;2023-02-03T01:20:51;99892.44;;;4.78;67.15
23170;BME280;11753;43.144;24.714;2023-02-03T01:21:52;99892.75;;;4.86;67.63
23170;BME280;11753;43.144;24.714;2023-02-03T01:22:52;99883.06;;;4.75;67.95
23170;BME280;11753;43.144;24.714;2023-02-03T01:23:53;99892.56;;;4.76;68.39
23170;BME280;11753;43.144;24.714;2023-02-03T01:24:54;99889.00;;;4.77;68.45
23170;BME280;11753;43.144;24.714;2023-02-03T01:25:55;99881.09;;;4.79;68.31
23170;BME280;11753;43.144;24.714;2023-02-03T01:26:56;99889.84;;;4.78;67.57
23170;BME280;11753;43.144;24.714;2023-02-03T01:27:57;99887.97;;;4.80;67.46
23170;BME280;11753;43.144;24.714;2023-02-03T01:28:58;99889.84;;;4.78;67.51
23170;BME280;11753;43.144;24.714;2023-02-03T01:29:59;99893.78;;;4.83;67.40
23170;BME280;11753;43.144;24.714;2023-02-03T01:31:13;99889.00;;;4.77;67.46
23170;BME280;11753;43.144;24.714;2023-02-03T01:32:15;99890.75;;;4.89;67.45
23170;BME280;11753;43.144;24.714;2023-02-03T01:33:18;99888.81;;;4.80;67.45
23170;BME280;11753;43.144;24.714;2023-02-03T01:34:18;99889.97;;;4.76;67.81
23170;BME280;11753;43.144;24.714;2023-02-03T01:35:19;99893.88;;;4.58;68.70
23170;BME280;11753;43.144;24.714;2023-02-03T01:36:23;99897.41;;;4.57;68.79
23170;BME280;11753;43.144;24.714;2023-02-03T01:37:23;99893.78;;;4.59;68.40
23170;BME280;11753;43.144;24.714;2023-02-03T01:38:24;99894.31;;;4.52;68.85
23170;BME280;11753;43.144;24.714;2023-02-03T01:39:25;99895.97;;;4.53;68.43
23170;BME280;11753;43.144;24.714;2023-02-03T01:40:26;99896.97;;;4.63;68.32
23170;BME280;11753;43.144;24.714;2023-02-03T01:41:30;99907.94;;;4.68;68.31
23170;BME280;11753;43.144;24.714;2023-02-03T01:42:32;99893.44;;;4.64;68.46
23170;BME280;11753;43.144;24.714;2023-02-03T01:43:36;99900.72;;;4.72;67.99
23170;BME280;11753;43.144;24.714;2023-02-03T01:44:42;99901.75;;;4.69;68.45
23170;BME280;11753;43.144;24.714;2023-02-03T01:45:44;99897.19;;;4.73;69.03
23170;BME280;11753;43.144;24.714;2023-02-03T01:46:47;99904.66;;;4.77;69.18
23170;BME280;11753;43.144;24.714;2023-02-03T01:47:53;99895.97;;;4.89;68.44
23170;BME280;11753;43.144;24.714;2023-02-03T01:49:05;99904.06;;;4.74;68.61
23170;BME280;11753;43.144;24.714;2023-02-03T01:51:14;99888.28;;;4.75;68.67
23170;BME280;11753;43.144;24.714;2023-02-03T01:52:16;99896.34;;;4.72;68.62
23170;BME280;11753;43.144;24.714;2023-02-03T01:53:18;99905.09;;;4.71;68.59
23170;BME280;11753;43.144;24.714;2023-02-03T01:54:27;99897.78;;;4.76;68.42
23170;BME280;11753;43.144;24.714;2023-02-03T01:55:38;99904.25;;;4.70;68.75
23170;BME280;11753;43.144;24.714;2023-02-03T01:56:47;99900.09;;;4.68;69.31
23170;BME280;11753;43.144;24.714;2023-02-03T01:57:55;99885.91;;;4.72;69.44
23170;BME280;11753;43.144;24.714;2023-02-03T01:58:57;99896.63;;;4.80;69.22
23170;BME280;11753;43.144;24.714;2023-02-03T02:00:01;99901.56;;;4.72;69.44
23170;BME280;11753;43.144;24.714;2023-02-03T02:01:02;99894.66;;;4.71;68.82
23170;BME280;11753;43.144;24.714;2023-02-03T02:02:03;99886.50;;;4.76;68.96
23170;BME280;11753;43.144;24.714;2023-02-03T02:03:07;99893.19;;;4.80;69.33
23170;BME280;11753;43.144;24.714;2023-02-03T02:04:09;99903.94;;;4.75;68.86
23170;BME280;11753;43.144;24.714;2023-02-03T02:06:56;99912.44;;;4.53;69.48
23170;BME280;11753;43.144;24.714;2023-02-03T02:07:59;99912.53;;;4.64;69.47
23170;BME280;11753;43.144;24.714;2023-02-03T02:09:00;99912.00;;;4.72;69.96
23170;BME280;11753;43.144;24.714;2023-02-03T02:10:03;99913.44;;;4.76;69.67
23170;BME280;11753;43.144;24.714;2023-02-03T02:11:04;99908.84;;;4.80;69.02
23170;BME280;11753;43.144;24.714;2023-02-03T02:12:09;99908.41;;;4.86;68.77
23170;BME280;11753;43.144;24.714;2023-02-03T02:13:11;99921.75;;;4.81;68.54
23170;BME280;11753;43.144;24.714;2023-02-03T02:14:12;99921.53;;;4.84;68.48
23170;BME280;11753;43.144;24.714;2023-02-03T02:15:13;99909.66;;;4.80;69.09
23170;BME280;11753;43.144;24.714;2023-02-03T02:27:48;99920.56;;;4.61;71.30
23170;BME280;11753;43.144;24.714;2023-02-03T02:30:52;99931.16;;;4.71;70.30
23170;BME280;11753;43.144;24.714;2023-02-03T02:33:43;99932.78;;;4.61;70.34
23170;BME280;11753;43.144;24.714;2023-02-03T02:35:26;99915.75;;;4.68;71.37
23170;BME280;11753;43.144;24.714;2023-02-03T02:38:44;99930.78;;;4.64;71.63
23170;BME280;11753;43.144;24.714;2023-02-03T02:41:07;99928.69;;;4.57;71.46
23170;BME280;11753;43.144;24.714;2023-02-03T02:42:32;99915.97;;;4.65;71.30
23170;BME280;11753;43.144;24.714;2023-02-03T02:43:41;99924.56;;;4.78;71.37
23170;BME280;11753;43.144;24.714;2023-02-03T02:44:50;99925.75;;;4.74;70.41
23170;BME280;11753;43.144;24.714;2023-02-03T02:45:57;99921.69;;;4.70;70.96
23170;BME280;11753;43.144;24.714;2023-02-03T02:47:02;99915.75;;;4.68;71.80
23170;BME280;11753;43.144;24.714;2023-02-03T02:48:14;99928.50;;;4.60;71.33
23170;BME280;11753;43.144;24.714;2023-02-03T02:49:38;99926.22;;;4.55;71.89
23170;BME280;11753;43.144;24.714;2023-02-03T02:50:44;99930.28;;;4.59;72.00
23170;BME280;11753;43.144;24.714;2023-02-03T02:51:47;99919.31;;;4.67;72.06
23170;BME280;11753;43.144;24.714;2023-02-03T02:52:50;99918.59;;;4.65;71.62
23170;BME280;11753;43.144;24.714;2023-02-03T02:53:55;99916.19;;;4.62;71.87
23170;BME280;11753;43.144;24.714;2023-02-03T02:55:04;99903.69;;;4.54;71.19
23170;BME280;11753;43.144;24.714;2023-02-03T02:56:09;99901.19;;;4.53;72.05
23170;BME280;11753;43.144;24.714;2023-02-03T02:57:12;99925.19;;;4.45;71.87
23170;BME280;11753;43.144;24.714;2023-02-03T02:58:15;99913.94;;;4.45;72.64
23170;BME280;11753;43.144;24.714;2023-02-03T02:59:17;99917.03;;;4.50;71.76
23170;BME280;11753;43.144;24.714;2023-02-03T03:00:21;99933.09;;;4.56;72.43
23170;BME280;11753;43.144;24.714;2023-02-03T03:01:22;99909.97;;;4.52;72.69
23170;BME280;11753;43.144;24.714;2023-02-03T03:02:34;99923.53;;;4.44;72.30
23170;BME280;11753;43.144;24.714;2023-02-03T03:03:35;99908.72;;;4.45;72.58
23170;BME280;11753;43.144;24.714;2023-02-03T03:04:40;99907.97;;;4.42;73.34
23170;BME280;11753;43.144;24.714;2023-02-03T03:07:00;99897.06;;;4.37;73.09
23170;BME280;11753;43.144;24.714;2023-02-03T03:08:05;99935.00;;;4.41;72.91
23170;BME280;11753;43.144;24.714;2023-02-03T03:09:20;99919.56;;;4.38;72.96
23170;BME280;11753;43.144;24.714;2023-02-03T03:10:28;99882.66;;;4.45;73.69
23170;BME280;11753;43.144;24.714;2023-02-03T03:11:40;99898.50;;;4.41;73.22
23170;BME280;11753;43.144;24.714;2023-02-03T03:12:49;99902.25;;;4.37;73.66
23170;BME280;11753;43.144;24.714;2023-02-03T03:13:53;99899.13;;;4.32;73.86
23170;BME280;11753;43.144;24.714;2023-02-03T03:15:02;99915.19;;;4.39;74.23
23170;BME280;11753;43.144;24.714;2023-02-03T03:16:05;99943.69;;;4.29;74.60
23170;BME280;11753;43.144;24.714;2023-02-03T03:17:11;99913.53;;;4.38;74.13
23170;BME280;11753;43.144;24.714;2023-02-03T03:18:32;99913.50;;;4.51;74.43
23170;BME280;11753;43.144;24.714;2023-02-03T03:19:39;99926.22;;;4.42;74.28
23170;BME280;11753;43.144;24.714;2023-02-03T03:20:43;99923.72;;;4.41;74.00
23170;BME280;11753;43.144;24.714;2023-02-03T03:21:52;99919.16;;;4.32;75.11
23170;BME280;11753;43.144;24.714;2023-02-03T03:23:10;99956.47;;;4.32;74.88
23170;BME280;11753;43.144;24.714;2023-02-03T03:24:18;99917.28;;;4.21;75.32
23170;BME280;11753;43.144;24.714;2023-02-03T03:25:27;99937.41;;;4.19;75.78
23170;BME280;11753;43.144;24.714;2023-02-03T03:27:51;99928.66;;;4.20;76.66
23170;BME280;11753;43.144;24.714;2023-02-03T03:29:05;99935.31;;;4.24;76.85
23170;BME280;11753;43.144;24.714;2023-02-03T03:30:11;99938.22;;;4.20;76.91
23170;BME280;11753;43.144;24.714;2023-02-03T03:31:16;99913.94;;;4.19;77.30
23170;BME280;11753;43.144;24.714;2023-02-03T03:32:18;99920.34;;;4.15;77.58
23170;BME280;11753;43.144;24.714;2023-02-03T03:33:20;99931.47;;;4.17;77.75
23170;BME280;11753;43.144;24.714;2023-02-03T03:34:22;99921.25;;;4.14;78.36
23170;BME280;11753;43.144;24.714;2023-02-03T03:35:24;99935.63;;;4.07;79.07
23170;BME280;11753;43.144;24.714;2023-02-03T03:36:47;99926.69;;;4.11;79.04
23170;BME280;11753;43.144;24.714;2023-02-03T03:38:02;99923.97;;;4.12;78.61
23170;BME280;11753;43.144;24.714;2023-02-03T03:39:27;99928.66;;;4.20;78.92
23170;BME280;11753;43.144;24.714;2023-02-03T03:40:38;99932.41;;;4.16;79.11
23170;BME280;11753;43.144;24.714;2023-02-03T03:42:58;99938.22;;;4.07;78.69
23170;BME280;11753;43.144;24.714;2023-02-03T03:44:03;99936.56;;;4.06;79.67
23170;BME280;11753;43.144;24.714;2023-02-03T03:45:18;99941.28;;;4.01;79.91
23170;BME280;11753;43.144;24.714;2023-02-03T03:46:33;99924.59;;;4.03;79.10
23170;BME280;11753;43.144;24.714;2023-02-03T03:48:05;99955.97;;;4.02;79.70
23170;BME280;11753;43.144;24.714;2023-02-03T03:49:07;99951.28;;;3.94;79.88
23170;BME280;11753;43.144;24.714;2023-02-03T03:50:15;99925.84;;;3.98;79.72
23170;BME280;11753;43.144;24.714;2023-02-03T03:52:36;99938.44;;;4.04;80.18
23170;BME280;11753;43.144;24.714;2023-02-03T03:53:39;99963.25;;;3.97;80.50
23170;BME280;11753;43.144;24.714;2023-02-03T03:54:43;99928.66;;;3.82;81.24
23170;BME280;11753;43.144;24.714;2023-02-03T03:55:49;99937.81;;;3.88;80.99
23170;BME280;11753;43.144;24.714;2023-02-03T03:56:59;99940.84;;;3.81;81.90
23170;BME280;11753;43.144;24.714;2023-02-03T03:58:07;99914.56;;;3.84;81.43
23170;BME280;11753;43.144;24.714;2023-02-03T03:59:11;99939.50;;;3.89;81.50
23170;BME280;11753;43.144;24.714;2023-02-03T04:00:16;99935.63;;;3.81;81.77
23170;BME280;11753;43.144;24.714;2023-02-03T04:01:20;99944.16;;;3.83;81.67
23170;BME280;11753;43.144;24.714;2023-02-03T04:02:25;99953.63;;;3.84;81.75
23170;BME280;11753;43.144;24.714;2023-02-03T04:03:32;99943.88;;;3.88;82.37
23170;BME280;11753;43.144;24.714;2023-02-03T04:04:36;99947.50;;;3.85;81.61
23170;BME280;11753;43.144;24.714;2023-02-03T04:05:39;99935.63;;;3.81;82.19
23170;BME280;11753;43.144;24.714;2023-02-03T04:06:40;99965.84;;;3.84;82.49
23170;BME280;11753;43.144;24.714;2023-02-03T04:07:43;99950.63;;;3.91;81.96
23170;BME280;11753;43.144;24.714;2023-02-03T04:08:44;99965.94;;;3.82;82.07
23170;BME280;11753;43.144;24.714;2023-02-03T04:09:45;99945.75;;;3.86;82.01
23170;BME280;11753;43.144;24.714;2023-02-03T04:10:47;99952.28;;;3.92;82.32
23170;BME280;11753;43.144;24.714;2023-02-03T04:11:48;99958.53;;;3.76;83.27
23170;BME280;11753;43.144;24.714;2023-02-03T04:13:01;99953.44;;;3.75;82.76
23170;BME280;11753;43.144;24.714;2023-02-03T04:14:05;99954.16;;;3.77;83.50
23170;BME280;11753;43.144;24.714;2023-02-03T04:15:07;99965.94;;;3.82;83.35
23170;BME280;11753;43.144;24.714;2023-02-03T04:16:08;99946.44;;;3.75;83.43
23170;BME280;11753;43.144;24.714;2023-02-03T04:17:09;99995.38;;;3.70;83.42
23170;BME280;11753;43.144;24.714;2023-02-03T04:18:12;99976.72;;;3.64;83.88
23170;BME280;11753;43.144;24.714;2023-02-03T04:19:14;99989.34;;;3.70;83.26
23170;BME280;11753;43.144;24.714;2023-02-03T04:20:15;100019.16;;;3.78;83.23
23170;BME280;11753;43.144;24.714;2023-02-03T04:21:16;99976.44;;;3.68;83.19
23170;BME280;11753;43.144;24.714;2023-02-03T04:22:17;99972.06;;;3.69;84.01
23170;BME280;11753;43.144;24.714;2023-02-03T04:23:18;99990.00;;;3.73;83.19
23170;BME280;11753;43.144;24.714;2023-02-03T04:24:19;99994.88;;;3.78;83.46
23170;BME280;11753;43.144;24.714;2023-02-03T04:25:20;99969.16;;;3.73;82.84
23170;BME280;11753;43.144;24.714;2023-02-03T04:26:22;100005.63;;;3.73;83.15
23170;BME280;11753;43.144;24.714;2023-02-03T04:27:24;99985.41;;;3.77;82.80
23170;BME280;11753;43.144;24.714;2023-02-03T04:28:25;100001.94;;;3.63;83.27
23170;BME280;11753;43.144;24.714;2023-02-03T04:29:26;99981.25;;;3.74;83.24
23170;BME280;11753;43.144;24.714;2023-02-03T04:30:27;99995.19;;;3.73;82.78
23170;BME280;11753;43.144;24.714;2023-02-03T04:31:28;100015.81;;;3.76;82.83
23170;BME280;11753;43.144;24.714;2023-02-03T04:32:29;100000.53;;;3.84;81.97
23170;BME280;11753;43.144;24.714;2023-02-03T04:33:30;99994.16;;;3.76;82.57
23170;BME280;11753;43.144;24.714;2023-02-03T04:34:31;99995.94;;;3.75;82.67
23170;BME280;11753;43.144;24.714;2023-02-03T04:35:32;100020.81;;;3.67;82.34
23170;BME280;11753;43.144;24.714;2023-02-03T04:36:33;99999.47;;;3.74;82.60
23170;BME280;11753;43.144;24.714;2023-02-03T04:37:34;99992.09;;;3.81;82.40
23170;BME280;11753;43.144;24.714;2023-02-03T04:38:36;100012.28;;;3.77;82.53
23170;BME280;11753;43.144;24.714;2023-02-03T04:39:37;100020.84;;;3.79;82.28
23170;BME280;11753;43.144;24.714;2023-02-03T04:40:38;99996.75;;;3.76;82.34
23170;BME280;11753;43.144;24.714;2023-02-03T04:41:39;100005.56;;;3.88;82.33
23170;BME280;11753;43.144;24.714;2023-02-03T04:42:40;100016.25;;;3.83;82.46
23170;BME280;11753;43.144;24.714;2023-02-03T04:43:41;100006.50;;;3.86;82.60
23170;BME280;11753;43.144;24.714;2023-02-03T04:44:42;100015.56;;;3.94;82.68
23170;BME280;11753;43.144;24.714;2023-02-03T04:45:43;100006.06;;;3.93;82.75
23170;BME280;11753;43.144;24.714;2023-02-03T04:46:44;100008.19;;;4.00;82.17
23170;BME280;11753;43.144;24.714;2023-02-03T04:47:50;100026.50;;;3.99;82.24
23170;BME280;11753;43.144;24.714;2023-02-03T04:48:51;100035.75;;;3.90;81.58
23170;BME280;11753;43.144;24.714;2023-02-03T04:49:53;100023.56;;;3.91;82.09
23170;BME280;11753;43.144;24.714;2023-02-03T04:50:53;100012.75;;;3.97;82.23
23170;BME280;11753;43.144;24.714;2023-02-03T04:51:54;100025.03;;;3.95;82.68
23170;BME280;11753;43.144;24.714;2023-02-03T04:52:55;100020.88;;;4.05;81.99
23170;BME280;11753;43.144;24.714;2023-02-03T04:53:59;100036.72;;;4.02;81.89
23170;BME280;11753;43.144;24.714;2023-02-03T04:55:00;100041.63;;;3.94;81.62
23170;BME280;11753;43.144;24.714;2023-02-03T04:56:04;100034.81;;;3.91;82.53
23170;BME280;11753;43.144;24.714;2023-02-03T04:57:06;100024.41;;;3.91;82.17
23170;BME280;11753;43.144;24.714;2023-02-03T04:58:07;100027.75;;;3.93;82.15
23170;BME280;11753;43.144;24.714;2023-02-03T04:59:08;100034.03;;;4.03;82.68
23170;BME280;11753;43.144;24.714;2023-02-03T05:00:10;100037.31;;;3.93;82.62
23170;BME280;11753;43.144;24.714;2023-02-03T05:01:11;100046.31;;;4.01;82.06
23170;BME280;11753;43.144;24.714;2023-02-03T05:02:12;100033.38;;;3.87;82.00
23170;BME280;11753;43.144;24.714;2023-02-03T05:03:14;100041.47;;;3.82;82.94
23170;BME280;11753;43.144;24.714;2023-02-03T05:04:15;100072.50;;;3.85;82.12
23170;BME280;11753;43.144;24.714;2023-02-03T05:05:16;100052.94;;;3.93;82.34
23170;BME280;11753;43.144;24.714;2023-02-03T05:06:24;100051.81;;;3.97;82.73
23170;BME280;11753;43.144;24.714;2023-02-03T05:07:25;100045.88;;;3.95;82.76
23170;BME280;11753;43.144;24.714;2023-02-03T05:08:26;100058.59;;;3.99;82.60
23170;BME280;11753;43.144;24.714;2023-02-03T05:09:27;100060.03;;;3.91;81.91
23170;BME280;11753;43.144;24.714;2023-02-03T05:10:28;100052.13;;;3.92;82.47
23170;BME280;11753;43.144;24.714;2023-02-03T05:11:29;100066.72;;;3.95;82.54
23170;BME280;11753;43.144;24.714;2023-02-03T05:12:30;100070.28;;;3.94;82.08
23170;BME280;11753;43.144;24.714;2023-02-03T05:13:31;100049.63;;;3.91;82.33
23170;BME280;11753;43.144;24.714;2023-02-03T05:14:32;100051.06;;;3.82;82.71
23170;BME280;11753;43.144;24.714;2023-02-03T05:15:33;100054.19;;;3.87;82.68
23170;BME280;11753;43.144;24.714;2023-02-03T05:16:34;100046.28;;;3.89;82.57
23170;BME280;11753;43.144;24.714;2023-02-03T05:17:35;100073.66;;;3.81;83.22
23170;BME280;11753;43.144;24.714;2023-02-03T05:18:39;100070.00;;;3.84;83.04
23170;BME280;11753;43.144;24.714;2023-02-03T05:19:40;100056.47;;;3.79;83.43
23170;BME280;11753;43.144;24.714;2023-02-03T05:20:41;100051.44;;;3.76;83.50
23170;BME280;11753;43.144;24.714;2023-02-03T05:21:42;100091.06;;;3.81;83.09
23170;BME280;11753;43.144;24.714;2023-02-03T05:22:43;100063.97;;;3.83;83.04
23170;BME280;11753;43.144;24.714;2023-02-03T05:23:44;100066.25;;;3.75;83.57
23170;BME280;11753;43.144;24.714;2023-02-03T05:24:45;100068.25;;;3.84;83.38
23170;BME280;11753;43.144;24.714;2023-02-03T05:25:47;100070.41;;;3.78;83.21
23170;BME280;11753;43.144;24.714;2023-02-03T05:26:48;100067.72;;;3.79;83.37
23170;BME280;11753;43.144;24.714;2023-02-03T05:27:50;100063.53;;;3.77;83.44
23170;BME280;11753;43.144;24.714;2023-02-03T05:28:51;100074.59;;;3.80;83.74
23170;BME280;11753;43.144;24.714;2023-02-03T05:29:52;100067.72;;;3.79;83.24
23170;BME280;11753;43.144;24.714;2023-02-03T05:30:53;100067.91;;;3.76;83.95
23170;BME280;11753;43.144;24.714;2023-02-03T05:31:54;100067.72;;;3.79;84.15
23170;BME280;11753;43.144;24.714;2023-02-03T05:32:55;100079.22;;;3.90;83.57
23170;BME280;11753;43.144;24.714;2023-02-03T05:33:57;100079.22;;;3.90;83.75
23170;BME280;11753;43.144;24.714;2023-02-03T05:34:58;100082.53;;;3.79;83.29
23170;BME280;11753;43.144;24.714;2023-02-03T05:35:58;100073.66;;;3.81;83.70
23170;BME280;11753;43.144;24.714;2023-02-03T05:36:59;100086.88;;;3.78;83.58
23170;BME280;11753;43.144;24.714;2023-02-03T05:38:01;100080.31;;;3.73;84.21
23170;BME280;11753;43.144;24.714;2023-02-03T05:39:02;100081.47;;;3.81;84.42
23170;BME280;11753;43.144;24.714;2023-02-03T05:40:03;100087.31;;;3.85;84.71
23170;BME280;11753;43.144;24.714;2023-02-03T05:41:23;100093.34;;;3.85;84.61
23170;BME280;11753;43.144;24.714;2023-02-03T05:42:49;100127.75;;;3.91;84.06
23170;BME280;11753;43.144;24.714;2023-02-03T05:43:51;100105.91;;;3.93;84.33
23170;BME280;11753;43.144;24.714;2023-02-03T05:44:51;100089.41;;;3.93;84.55
23170;BME280;11753;43.144;24.714;2023-02-03T05:45:52;100103.53;;;3.76;84.83
23170;BME280;11753;43.144;24.714;2023-02-03T05:46:54;100121.75;;;3.76;85.31
23170;BME280;11753;43.144;24.714;2023-02-03T05:47:55;100114.59;;;3.79;85.37
23170;BME280;11753;43.144;24.714;2023-02-03T05:48:56;100119.94;;;3.91;85.48
23170;BME280;11753;43.144;24.714;2023-02-03T05:49:56;100101.91;;;3.88;85.13
23170;BME280;11753;43.144;24.714;2023-02-03T05:50:57;100107.31;;;3.84;85.87
23170;BME280;11753;43.144;24.714;2023-02-03T05:51:58;100125.25;;;3.89;85.54
23170;BME280;11753;43.144;24.714;2023-02-03T05:53:00;100130.03;;;3.82;85.57
23170;BME280;11753;43.144;24.714;2023-02-03T05:54:01;100121.97;;;3.73;85.84
23170;BME280;11753;43.144;24.714;2023-02-03T05:55:02;100105.50;;;3.72;86.43
23170;BME280;11753;43.144;24.714;2023-02-03T05:56:04;100148.50;;;3.65;86.75
23170;BME280;11753;43.144;24.714;2023-02-03T05:57:04;100126.19;;;3.61;87.17
23170;BME280;11753;43.144;24.714;2023-02-03T05:58:05;100131.09;;;3.66;87.26
23170;BME280;11753;43.144;24.714;2023-02-03T05:59:08;100119.53;;;3.70;88.09
23170;BME280;11753;43.144;24.714;2023-02-03T06:00:09;100106.41;;;3.71;88.22
23170;BME280;11753;43.144;24.714;2023-02-03T06:01:09;100129.50;;;3.63;88.41
23170;BME280;11753;43.144;24.714;2023-02-03T06:02:11;100118.09;;;3.66;88.22